createdAt,value
2023-12-05T00:01:34.805Z,18.10
2023-12-05T00:04:03.348Z,14.30
2023-12-05T00:06:31.942Z,16.60
2023-12-05T00:09:00.346Z,16.30
2023-12-05T00:11:28.905Z,19.70
2023-12-05T00:13:57.772Z,22.50
2023-12-05T00:16:26.585Z,20.90
2023-12-05T00:18:55.043Z,17.90
2023-12-05T00:21:23.686Z,15.80
2023-12-05T00:23:52.231Z,19.70
2023-12-05T00:26:20.637Z,17.70
2023-12-05T00:28:49.067Z,17.70
2023-12-05T00:31:17.433Z,15.60
2023-12-05T00:33:45.926Z,15.90
2023-12-05T00:36:14.524Z,16.20
2023-12-05T00:38:43.043Z,12.00
2023-12-05T00:41:11.452Z,11.80
2023-12-05T00:43:39.972Z,13.20
2023-12-05T00:46:08.551Z,11.40
2023-12-05T00:48:36.958Z,13.40
2023-12-05T00:51:06.010Z,12.90
2023-12-05T00:53:34.343Z,9.90
2023-12-05T00:56:03.518Z,10.70
2023-12-05T00:58:32.079Z,9.10
2023-12-05T01:01:00.441Z,8.20
2023-12-05T01:03:28.892Z,13.90
2023-12-05T01:05:58.157Z,12.70
2023-12-05T01:08:27.307Z,10.00
2023-12-05T01:10:55.713Z,12.30
2023-12-05T01:13:26.009Z,11.70
2023-12-05T01:15:54.439Z,10.10
2023-12-05T01:18:23.908Z,9.90
2023-12-05T01:20:52.365Z,11.80
2023-12-05T01:23:20.938Z,11.20
2023-12-05T01:25:49.326Z,10.60
2023-12-05T01:28:17.696Z,14.90
2023-12-05T01:30:46.175Z,10.30
2023-12-05T01:33:14.609Z,13.80
2023-12-05T01:35:43.191Z,14.10
2023-12-05T01:38:11.527Z,14.40
2023-12-05T01:40:40.369Z,15.20
2023-12-05T01:43:08.744Z,14.00
2023-12-05T01:45:37.197Z,13.10
2023-12-05T01:48:07.247Z,12.00
2023-12-05T01:50:35.818Z,10.90
2023-12-05T01:53:06.244Z,11.20
2023-12-05T01:55:38.318Z,11.30
2023-12-05T01:58:09.815Z,12.30
2023-12-05T02:00:42.503Z,13.60
2023-12-05T02:03:11.503Z,16.20
2023-12-05T02:05:40.449Z,13.50
2023-12-05T02:08:12.717Z,13.60
2023-12-05T02:10:41.078Z,13.00
2023-12-05T02:13:09.481Z,13.30
2023-12-05T02:15:38.535Z,17.00
2023-12-05T02:18:19.638Z,16.90
2023-12-05T02:20:53.385Z,16.40
2023-12-05T02:24:00.529Z,13.90
2023-12-05T02:26:50.802Z,11.00
2023-12-05T02:29:19.575Z,12.00
2023-12-05T02:31:47.930Z,12.90
2023-12-05T02:34:16.544Z,16.40
2023-12-05T02:37:05.383Z,16.50
2023-12-05T02:39:43.281Z,15.80
2023-12-05T02:42:16.126Z,14.40
2023-12-05T02:44:49.510Z,13.50
2023-12-05T02:47:21.532Z,13.70
2023-12-05T02:49:50.795Z,12.80
2023-12-05T02:52:22.753Z,11.90
2023-12-05T02:54:51.295Z,11.90
2023-12-05T02:57:19.712Z,14.80
2023-12-05T02:59:48.095Z,17.70
2023-12-05T03:02:16.670Z,17.30
2023-12-05T03:04:45.350Z,17.50
2023-12-05T03:07:13.860Z,15.80
2023-12-05T03:09:42.717Z,17.90
2023-12-05T03:12:11.089Z,15.00
2023-12-05T03:14:39.645Z,18.10
2023-12-05T03:17:08.031Z,19.50
2023-12-05T03:19:39.222Z,16.90
2023-12-05T03:22:07.624Z,21.60
2023-12-05T03:24:36.286Z,18.70
2023-12-05T03:27:04.787Z,19.50
2023-12-05T03:29:33.459Z,16.90
2023-12-05T03:32:04.450Z,19.00
2023-12-05T03:34:32.816Z,18.10
2023-12-05T03:37:01.389Z,17.50
2023-12-05T03:39:30.085Z,18.50
2023-12-05T03:41:58.474Z,18.60
2023-12-05T03:44:26.818Z,16.60
2023-12-05T03:46:55.231Z,17.10
2023-12-05T03:49:24.482Z,16.30
2023-12-05T03:51:52.975Z,18.50
2023-12-05T03:54:21.479Z,17.50
2023-12-05T03:56:50.116Z,17.40
2023-12-05T03:59:18.428Z,19.50
2023-12-05T04:01:46.843Z,17.30
2023-12-05T04:04:15.365Z,18.90
2023-12-05T04:06:43.929Z,17.10
2023-12-05T04:09:12.291Z,15.60
2023-12-05T04:11:40.780Z,15.20
2023-12-05T04:14:09.107Z,19.20
2023-12-05T04:16:38.126Z,18.50
2023-12-05T04:19:07.095Z,16.70
2023-12-05T04:21:35.715Z,17.10
2023-12-05T04:24:04.384Z,18.10
2023-12-05T04:26:32.692Z,17.50
2023-12-05T04:29:01.080Z,18.10
2023-12-05T04:31:29.385Z,18.10
2023-12-05T04:33:59.673Z,19.60
2023-12-05T04:36:28.353Z,19.00
2023-12-05T04:38:56.710Z,17.40
2023-12-05T04:41:25.051Z,17.30
2023-12-05T04:43:53.762Z,18.50
2023-12-05T04:46:22.261Z,16.00
2023-12-05T04:48:50.690Z,16.80
2023-12-05T04:51:21.192Z,16.70
2023-12-05T04:53:49.626Z,17.60
2023-12-05T04:56:17.974Z,16.70
2023-12-05T04:58:46.423Z,20.00
2023-12-05T05:01:14.865Z,18.90
2023-12-05T05:03:43.355Z,18.90
2023-12-05T05:06:12.378Z,16.30
2023-12-05T05:08:40.908Z,17.50
2023-12-05T05:11:09.302Z,16.30
2023-12-05T05:13:45.803Z,19.00
2023-12-05T05:18:47.037Z,16.90
2023-12-05T05:21:15.552Z,19.70
2023-12-05T05:23:43.924Z,18.00
2023-12-05T05:26:12.305Z,18.80
2023-12-05T05:28:40.778Z,17.80
2023-12-05T05:31:09.159Z,18.80
2023-12-05T05:33:37.984Z,20.60
2023-12-05T05:36:07.352Z,20.80
2023-12-05T05:38:35.772Z,19.10
2023-12-05T05:41:06.175Z,20.40
2023-12-05T05:43:34.773Z,17.30
2023-12-05T05:46:03.645Z,19.80
2023-12-05T05:48:32.320Z,20.80
2023-12-05T05:51:01.986Z,20.20
2023-12-05T05:53:30.341Z,23.50
2023-12-05T05:56:01.623Z,23.50
2023-12-05T05:58:30.190Z,21.60
2023-12-05T06:00:58.709Z,21.40
2023-12-05T06:03:29.856Z,16.10
2023-12-05T06:06:02.515Z,22.00
2023-12-05T06:08:31.125Z,20.30
2023-12-05T06:10:59.530Z,15.90
2023-12-05T06:13:28.746Z,20.40
2023-12-05T06:15:57.155Z,19.10
2023-12-05T06:18:26.255Z,21.80
2023-12-05T06:20:57.691Z,20.70
2023-12-05T06:23:27.311Z,18.70
2023-12-05T06:25:56.412Z,21.00
2023-12-05T06:28:24.833Z,18.90
2023-12-05T06:30:53.819Z,21.90
2023-12-05T06:33:22.400Z,20.90
2023-12-05T06:35:50.883Z,18.00
2023-12-05T06:38:19.212Z,18.60
2023-12-05T06:40:49.118Z,24.10
2023-12-05T06:43:17.620Z,19.20
2023-12-05T06:45:46.052Z,22.40
2023-12-05T06:48:15.147Z,21.80
2023-12-05T06:50:46.847Z,21.60
2023-12-05T06:53:15.663Z,19.90
2023-12-05T06:55:43.969Z,17.50
2023-12-05T06:58:12.323Z,20.70
2023-12-05T07:00:41.080Z,18.50
2023-12-05T07:03:09.683Z,17.60
2023-12-05T07:05:38.275Z,18.60
2023-12-05T07:08:08.192Z,19.90
2023-12-05T07:10:36.628Z,24.30
2023-12-05T07:13:05.020Z,23.70
2023-12-05T07:15:33.523Z,31.70
2023-12-05T07:18:02.037Z,21.90
2023-12-05T07:20:30.582Z,22.60
2023-12-05T07:22:58.908Z,25.00
2023-12-05T07:25:27.390Z,26.90
2023-12-05T07:27:55.802Z,24.60
2023-12-05T07:30:24.440Z,23.50
2023-12-05T07:32:53.051Z,19.40
2023-12-05T07:35:21.480Z,23.20
2023-12-05T07:37:50.662Z,18.30
2023-12-05T07:40:19.004Z,20.20
2023-12-05T07:42:47.396Z,23.10
2023-12-05T07:45:15.731Z,22.20
2023-12-05T07:47:44.868Z,21.90
2023-12-05T07:50:14.583Z,23.70
2023-12-05T07:52:43.987Z,23.70
2023-12-05T07:55:12.466Z,18.90
2023-12-05T07:57:40.930Z,22.40
2023-12-05T08:00:15.994Z,21.90
2023-12-05T08:02:45.123Z,20.60
2023-12-05T08:05:14.763Z,17.90
2023-12-05T08:07:43.562Z,19.70
2023-12-05T08:10:12.184Z,23.50
2023-12-05T08:12:40.730Z,17.40
2023-12-05T08:15:09.437Z,19.50
2023-12-05T08:17:37.881Z,22.60
2023-12-05T08:20:07.928Z,21.00
2023-12-05T08:22:37.916Z,21.60
2023-12-05T08:25:08.940Z,24.40
2023-12-05T08:27:37.929Z,19.90
2023-12-05T08:30:07.331Z,25.40
2023-12-05T08:32:36.036Z,22.80
2023-12-05T08:35:05.039Z,23.30
2023-12-05T08:37:33.652Z,23.20
2023-12-05T08:40:02.029Z,21.70
2023-12-05T08:42:30.374Z,30.40
2023-12-05T08:44:58.843Z,24.10
2023-12-05T08:47:50.828Z,23.30
2023-12-05T08:50:20.182Z,22.20
2023-12-05T08:52:48.989Z,22.80
2023-12-05T08:55:18.454Z,25.80
2023-12-05T08:57:47.022Z,21.70
2023-12-05T09:00:16.059Z,25.30
2023-12-05T09:02:44.632Z,23.70
2023-12-05T09:05:13.201Z,21.80
2023-12-05T09:07:41.956Z,27.00
2023-12-05T09:10:10.450Z,23.20
2023-12-05T09:12:38.815Z,28.10
2023-12-05T09:15:07.310Z,27.00
2023-12-05T09:17:35.976Z,23.90
2023-12-05T09:20:05.447Z,22.70
2023-12-05T09:22:34.038Z,27.60
2023-12-05T09:25:03.807Z,29.60
2023-12-05T09:27:32.257Z,27.30
2023-12-05T09:30:00.591Z,28.10
2023-12-05T09:32:28.945Z,23.70
2023-12-05T09:34:57.306Z,27.50
2023-12-05T09:37:25.726Z,25.50
2023-12-05T09:39:54.130Z,24.20
2023-12-05T09:42:25.864Z,28.10
2023-12-05T09:44:54.442Z,28.00
2023-12-05T09:47:23.037Z,24.90
2023-12-05T09:49:52.998Z,26.40
2023-12-05T09:52:21.952Z,23.10
2023-12-05T09:54:52.050Z,24.60
2023-12-05T09:57:21.382Z,27.10
2023-12-05T09:59:49.804Z,23.50
2023-12-05T10:02:22.208Z,23.40
2023-12-05T10:05:02.070Z,19.90
2023-12-05T10:07:31.860Z,24.00
2023-12-05T10:10:03.018Z,23.40
2023-12-05T10:12:32.811Z,22.90
2023-12-05T10:15:01.894Z,19.80
2023-12-05T10:17:34.444Z,26.80
2023-12-05T10:20:03.175Z,24.30
2023-12-05T10:22:34.870Z,21.50
2023-12-05T10:25:03.481Z,21.30
2023-12-05T10:27:32.044Z,22.10
2023-12-05T10:30:00.424Z,22.30
2023-12-05T10:32:29.444Z,19.20
2023-12-05T10:34:58.338Z,18.50
2023-12-05T10:37:29.839Z,19.70
2023-12-05T10:39:59.821Z,20.10
2023-12-05T10:42:32.073Z,16.50
2023-12-05T10:45:07.204Z,21.60
2023-12-05T10:47:35.686Z,22.30
2023-12-05T10:50:05.037Z,27.20
2023-12-05T10:52:35.635Z,24.90
2023-12-05T10:55:04.381Z,19.60
2023-12-05T10:57:37.559Z,23.80
2023-12-05T11:00:07.887Z,22.30
2023-12-05T11:02:39.377Z,20.40
2023-12-05T11:05:10.380Z,18.40
2023-12-05T11:07:39.990Z,19.10
2023-12-05T11:10:09.182Z,19.90
2023-12-05T11:12:41.068Z,17.50
2023-12-05T11:15:11.841Z,22.80
2023-12-05T11:17:50.117Z,19.40
2023-12-05T11:20:37.909Z,16.40
2023-12-05T11:23:12.473Z,23.10
2023-12-05T11:26:05.898Z,14.10
2023-12-05T11:28:43.553Z,18.50
2023-12-05T11:31:37.721Z,22.80
2023-12-05T11:34:46.363Z,17.00
2023-12-05T11:37:29.283Z,17.50
2023-12-05T11:39:57.960Z,19.50
2023-12-05T11:42:26.484Z,18.30
2023-12-05T11:44:55.223Z,18.30
2023-12-05T11:47:30.332Z,17.40
2023-12-05T11:50:01.771Z,16.20
2023-12-05T11:52:40.939Z,18.70
2023-12-05T11:55:13.048Z,21.00
2023-12-05T11:57:42.041Z,19.20
2023-12-05T12:00:13.775Z,18.50
2023-12-05T12:02:44.391Z,23.90
2023-12-05T12:05:13.837Z,19.10
2023-12-05T12:07:59.373Z,19.60
2023-12-05T12:10:28.135Z,18.70
2023-12-05T12:12:56.947Z,17.60
2023-12-05T12:15:26.113Z,19.00
2023-12-05T12:17:55.295Z,17.60
2023-12-05T12:20:24.013Z,18.20
2023-12-05T12:22:53.006Z,21.10
2023-12-05T12:25:21.783Z,21.30
2023-12-05T12:27:50.169Z,18.90
2023-12-05T12:30:19.895Z,26.20
2023-12-05T12:33:07.177Z,19.10
2023-12-05T12:35:36.397Z,17.70
2023-12-05T12:38:04.950Z,20.50
2023-12-05T12:40:35.251Z,20.10
2023-12-05T12:43:04.582Z,19.20
2023-12-05T12:45:33.254Z,19.40
2023-12-05T12:48:05.255Z,21.30
2023-12-05T12:50:33.889Z,18.80
2023-12-05T12:53:02.386Z,21.70
2023-12-05T12:55:31.171Z,21.00
2023-12-05T12:58:01.181Z,20.00
2023-12-05T13:00:34.332Z,22.40
2023-12-05T13:03:08.479Z,20.90
2023-12-05T13:08:11.020Z,21.60
2023-12-05T13:10:42.612Z,21.80
2023-12-05T13:13:12.082Z,22.90
2023-12-05T13:15:44.073Z,20.20
2023-12-05T13:18:12.815Z,23.80
2023-12-05T13:20:56.474Z,22.60
2023-12-05T13:23:25.506Z,20.10
2023-12-05T13:25:54.730Z,18.60
2023-12-05T13:28:24.758Z,20.60
2023-12-05T13:30:53.339Z,16.00
2023-12-05T13:33:21.826Z,25.70
2023-12-05T13:35:51.147Z,19.30
2023-12-05T13:38:22.953Z,19.90
2023-12-05T13:40:51.511Z,23.20
2023-12-05T13:43:20.006Z,22.80
2023-12-05T13:45:48.457Z,16.30
2023-12-05T13:48:16.969Z,21.00
2023-12-05T13:50:46.072Z,31.80
2023-12-05T13:53:14.534Z,20.90
2023-12-05T13:55:43.087Z,18.40
2023-12-05T13:58:11.554Z,21.10
2023-12-05T14:00:40.073Z,19.80
2023-12-05T14:03:08.646Z,19.50
2023-12-05T14:05:37.724Z,23.70
2023-12-05T14:08:06.338Z,24.30
2023-12-05T14:10:34.837Z,23.40
2023-12-05T14:13:03.571Z,20.80
2023-12-05T14:15:36.397Z,23.00
2023-12-05T14:18:10.011Z,27.20
2023-12-05T14:20:38.722Z,28.40
2023-12-05T14:23:07.182Z,21.50
2023-12-05T14:25:35.511Z,21.90
2023-12-05T14:28:04.570Z,20.40
2023-12-05T14:30:33.101Z,23.90
2023-12-05T14:33:01.614Z,22.50
2023-12-05T14:35:30.178Z,21.60
2023-12-05T14:37:58.554Z,23.40
2023-12-05T14:40:27.074Z,24.00
2023-12-05T14:42:55.633Z,22.60
2023-12-05T14:45:26.453Z,21.60
2023-12-05T14:47:55.322Z,20.80
2023-12-05T14:50:23.857Z,20.00
2023-12-05T14:52:52.272Z,20.90
2023-12-05T14:55:20.661Z,21.30
2023-12-05T14:57:50.212Z,25.80
2023-12-05T15:00:20.608Z,22.40
2023-12-05T15:02:49.155Z,23.30
2023-12-05T15:05:18.137Z,22.20
2023-12-05T15:07:46.676Z,24.40
2023-12-05T15:10:15.564Z,24.00
2023-12-05T15:12:44.137Z,23.30
2023-12-05T15:15:15.466Z,25.30
2023-12-05T15:17:44.822Z,27.40
2023-12-05T15:20:20.255Z,27.10
2023-12-05T15:22:52.442Z,24.80
2023-12-05T15:25:21.825Z,25.10
2023-12-05T15:27:50.291Z,23.50
2023-12-05T15:30:18.769Z,25.10
2023-12-05T15:32:56.090Z,22.80
2023-12-05T15:35:24.958Z,25.10
2023-12-05T15:37:53.444Z,26.80
2023-12-05T15:40:21.948Z,24.80
2023-12-05T15:42:50.728Z,25.50
2023-12-05T15:45:19.331Z,28.50
2023-12-05T15:47:48.010Z,24.90
2023-12-05T15:50:19.620Z,22.50
2023-12-05T15:52:48.954Z,27.50
2023-12-05T15:55:17.387Z,24.50
2023-12-05T15:57:45.972Z,25.00
2023-12-05T16:00:14.620Z,24.90
2023-12-05T16:02:45.830Z,23.60
2023-12-05T16:05:14.481Z,26.20
2023-12-05T16:07:43.111Z,21.40
2023-12-05T16:10:12.366Z,19.90
2023-12-05T16:12:43.844Z,22.90
2023-12-05T16:15:15.102Z,21.00
2023-12-05T16:17:43.545Z,22.50
2023-12-05T16:20:12.320Z,23.60
2023-12-05T16:22:40.848Z,29.10
2023-12-05T16:25:11.170Z,22.50
2023-12-05T16:27:39.619Z,21.10
2023-12-05T16:30:09.059Z,24.80
2023-12-05T16:32:38.608Z,20.10
2023-12-05T16:37:39.290Z,22.50
2023-12-05T16:40:09.928Z,23.30
2023-12-05T16:42:42.801Z,24.20
2023-12-05T16:45:12.209Z,27.80
2023-12-05T16:47:41.452Z,24.40
2023-12-05T16:50:10.534Z,23.80
2023-12-05T16:52:41.528Z,21.80
2023-12-05T16:55:09.933Z,19.80
2023-12-05T16:57:41.128Z,22.30
2023-12-05T17:00:10.152Z,26.20
2023-12-05T17:02:39.075Z,20.70
2023-12-05T17:05:07.787Z,23.80
2023-12-05T17:07:36.239Z,22.10
2023-12-05T17:10:05.573Z,24.40
2023-12-05T17:12:34.760Z,18.90
2023-12-05T17:15:03.793Z,31.30
2023-12-05T17:17:35.111Z,22.40
2023-12-05T17:20:09.310Z,25.10
2023-12-05T17:22:37.633Z,24.20
2023-12-05T17:25:08.459Z,27.70
2023-12-05T17:27:37.643Z,25.10
2023-12-05T17:30:12.586Z,28.50
2023-12-05T17:32:41.139Z,29.40
2023-12-05T17:35:09.657Z,24.00
2023-12-05T17:37:40.986Z,26.70
2023-12-05T17:40:09.789Z,33.30
2023-12-05T17:42:38.257Z,33.10
2023-12-05T17:45:10.270Z,38.40
2023-12-05T17:47:38.670Z,34.10
2023-12-05T17:50:07.565Z,33.10
2023-12-05T17:52:37.198Z,32.20
2023-12-05T17:55:05.749Z,33.20
2023-12-05T17:57:34.263Z,30.40
2023-12-05T18:00:03.085Z,35.60
2023-12-05T18:02:41.213Z,34.60
2023-12-05T18:05:09.880Z,29.30
2023-12-05T18:07:53.983Z,30.30
2023-12-05T18:10:29.095Z,30.90
2023-12-05T18:12:57.592Z,27.60
2023-12-05T18:15:27.203Z,30.20
2023-12-05T18:17:55.770Z,26.70
2023-12-05T18:20:24.428Z,36.40
2023-12-05T18:22:52.883Z,25.60
2023-12-05T18:25:23.355Z,29.00
2023-12-05T18:27:52.620Z,29.10
2023-12-05T18:30:21.361Z,30.30
2023-12-05T18:32:50.738Z,30.10
2023-12-05T18:35:19.295Z,30.60
2023-12-05T18:37:49.388Z,32.80
2023-12-05T18:40:18.062Z,25.80
2023-12-05T18:42:46.544Z,32.70
2023-12-05T18:45:15.121Z,30.30
2023-12-05T18:47:43.503Z,32.00
2023-12-05T18:50:11.929Z,32.20
2023-12-05T18:52:40.349Z,36.90
2023-12-05T18:55:09.038Z,32.10
2023-12-05T18:57:37.748Z,24.80
2023-12-05T19:00:07.606Z,26.00
2023-12-05T19:02:36.038Z,27.10
2023-12-05T19:05:04.912Z,28.50
2023-12-05T19:07:33.390Z,26.00
2023-12-05T19:10:02.288Z,24.90
2023-12-05T19:12:30.931Z,26.00
2023-12-05T19:15:02.504Z,25.60
2023-12-05T19:17:31.351Z,27.50
2023-12-05T19:19:59.738Z,32.10
2023-12-05T19:22:28.295Z,24.20
2023-12-05T19:24:58.956Z,25.00
2023-12-05T19:27:28.363Z,25.00
2023-12-05T19:29:56.846Z,24.80
2023-12-05T19:32:25.286Z,26.50
2023-12-05T19:34:53.759Z,24.50
2023-12-05T19:37:22.519Z,23.30
2023-12-05T19:39:51.168Z,22.80
2023-12-05T19:42:21.298Z,25.50
2023-12-05T19:44:49.779Z,29.00
2023-12-05T19:47:19.345Z,27.00
2023-12-05T19:49:48.131Z,26.70
2023-12-05T19:52:16.718Z,29.20
2023-12-05T19:54:45.223Z,24.60
2023-12-05T19:57:13.639Z,24.30
2023-12-05T19:59:45.795Z,27.10
2023-12-05T20:02:14.914Z,25.50
2023-12-05T20:04:43.661Z,24.10
2023-12-05T20:07:12.519Z,27.00
2023-12-05T20:09:41.332Z,32.30
2023-12-05T20:12:09.691Z,29.10
2023-12-05T20:14:38.186Z,30.00
2023-12-05T20:17:06.673Z,27.20
2023-12-05T20:19:35.300Z,27.10
2023-12-05T20:22:03.958Z,31.00
2023-12-05T20:24:32.767Z,27.30
2023-12-05T20:27:01.203Z,31.60
2023-12-05T20:29:29.537Z,30.00
2023-12-05T20:31:58.110Z,37.10
2023-12-05T20:34:26.507Z,51.40
2023-12-05T20:36:54.957Z,41.90
2023-12-05T20:39:23.700Z,37.40
2023-12-05T20:41:53.691Z,42.10
2023-12-05T20:44:22.259Z,29.10
2023-12-05T20:46:50.744Z,27.30
2023-12-05T20:49:19.242Z,21.60
2023-12-05T20:51:48.337Z,21.20
2023-12-05T20:54:16.865Z,23.00
2023-12-05T20:56:45.395Z,27.50
2023-12-05T20:59:13.826Z,24.20
2023-12-05T21:01:42.395Z,24.80
2023-12-05T21:04:10.918Z,24.90
2023-12-05T21:06:39.315Z,28.20
2023-12-05T21:09:18.837Z,21.70
2023-12-05T21:11:47.179Z,24.50
2023-12-05T21:14:15.946Z,26.60
2023-12-05T21:16:44.548Z,20.70
2023-12-05T21:19:13.894Z,27.40
2023-12-05T21:21:42.462Z,27.70
2023-12-05T21:24:10.831Z,29.40
2023-12-05T21:26:39.188Z,28.90
2023-12-05T21:29:07.494Z,23.80
2023-12-05T21:31:36.262Z,26.20
2023-12-05T21:34:04.929Z,27.50
2023-12-05T21:36:33.408Z,25.40
2023-12-05T21:39:01.873Z,28.80
2023-12-05T21:41:30.254Z,27.80
2023-12-05T21:43:58.606Z,25.80
2023-12-05T21:46:32.779Z,27.30
2023-12-05T21:49:01.509Z,27.90
2023-12-05T21:51:33.353Z,27.60
2023-12-05T21:54:03.339Z,32.40
2023-12-05T21:56:32.296Z,30.40
2023-12-05T21:59:00.809Z,35.70
2023-12-05T22:01:31.476Z,36.60
2023-12-05T22:06:28.655Z,29.20
2023-12-05T22:08:57.259Z,30.70
2023-12-05T22:11:25.656Z,28.50
2023-12-05T22:13:54.148Z,29.80
2023-12-05T22:16:22.466Z,32.20
2023-12-05T22:18:50.953Z,28.40
2023-12-05T22:21:21.164Z,28.10
2023-12-05T22:23:49.577Z,28.80
2023-12-05T22:26:21.138Z,26.60
2023-12-05T22:28:49.547Z,27.90
2023-12-05T22:31:28.034Z,25.70
2023-12-05T22:33:57.336Z,25.80
2023-12-05T22:36:26.767Z,21.90
2023-12-05T22:38:55.861Z,29.10
2023-12-05T22:41:24.277Z,29.80
2023-12-05T22:43:52.667Z,26.70
2023-12-05T22:46:20.972Z,25.60
2023-12-05T22:48:49.672Z,28.50
2023-12-05T22:51:18.261Z,28.60
2023-12-05T22:53:46.615Z,27.50
2023-12-05T22:56:18.249Z,27.20
2023-12-05T23:01:15.010Z,26.00
2023-12-05T23:03:46.194Z,31.00
2023-12-05T23:06:16.022Z,25.60
2023-12-05T23:08:45.489Z,31.50
2023-12-05T23:11:14.277Z,31.30
2023-12-05T23:13:44.474Z,33.00
2023-12-05T23:16:13.229Z,30.90
2023-12-05T23:18:41.722Z,29.60
2023-12-05T23:21:10.219Z,28.20
2023-12-05T23:23:38.602Z,31.00
2023-12-05T23:26:09.201Z,26.80
2023-12-05T23:28:37.803Z,28.90
2023-12-05T23:31:06.307Z,32.30
2023-12-05T23:33:34.788Z,31.10
2023-12-05T23:36:03.507Z,29.40
2023-12-05T23:38:31.892Z,27.10
2023-12-05T23:41:00.306Z,32.90
2023-12-05T23:43:28.673Z,29.30
2023-12-05T23:45:57.480Z,27.50
2023-12-05T23:48:26.161Z,27.50
2023-12-05T23:50:54.666Z,30.80
2023-12-05T23:53:23.082Z,29.30
2023-12-05T23:55:53.985Z,34.80
